메인 페이지
METAR-TAF:

METAR-TAF

공항 :

Goodland Municipal Airport (Renner Field)

Goodland, 캔자스, 미국

위도: 39-22-03N, 경도: 101-41-35W, 고도: 1114m

현재 날씨관측

예보는 22분 전, 01:10시(UTC)에 발표되었습니다.
남남동7kt
온도 -2°C
습도 100%
기압 1015 hPa
시정: 0.8km
어는 안개

METAR: KGLD 170110Z AUTO 16007KT 1/2SM FZFG VV002 M02/M02 A2997 RMK AO2 I1000 T10171017

시각: 18:32 (01:32 UTC)

예보

예보는 32분 전, 01:00시(UTC)에 발표되었습니다.
예보 대상 시간: 17일 01시부터 17일 24시까지 (UTC)
남남동6kt
시정: 0.4km
고도 200ft 상공
안개
일시적
17일 03시부터 17일 06시까지 (UTC)
시정: 3.2km
박무
17일 0600시부터 (UTC)
서남서6kt
시정: 3.2km
고도 300ft 상공 구름 많음
박무
일시적
17일 06시부터 17일 08시까지 (UTC)
시정: 9.7km
고도 600ft 상공 구름 많음
박무
17일 0800시부터 (UTC)
6kt
시정: 10km
고도 20000ft 상공 구름 많음
17일 1900시부터 (UTC)
남서6kt
시정: 10km
고도 25000ft 상공 구름 조금

TAF: KGLD 170100Z 1701/1724 16006KT 1/4SM FG VV002 TEMPO 1703/1706 2SM BR FM170600 25006KT 2SM BR BKN003 TEMPO 1706/1708 6SM BR BKN006 FM170800 27006KT P6SM BKN200 FM171900 23006KT P6SM FEW250

4,000개 이상의 공항 관측 자료 및 예보 (METAR 및 TAF 보고).

지도상에서 검색 가능한 기상관측소가 노란 점과 빨간 점으로 표시되어 있습니다.

기상관측소 명을 보려면 표시 위로 마우스를 이동하세요.

날씨 관측과 예보를 보려면 클릭하세요.

지도 변경 : 확대하려면 엑스 표시가 있는 녹색 버튼, 축소하려면 빼기 표시가 있는 녹색 버튼, 다음 페이지의 지도를 보려면 녹색 화살표를 클릭하세요.


METAR-TAF: